ANA566 RJOK-RJTT
Flight info
| Callsign | ANA566 |
|---|---|
| Flight time | 1h 3m |
| Altitude | 35000 |
| Route | MUROT MIYAT MERID KEC Y43 MENUR Y21 AKSEL |
| Aircraft | B738/M-SDE2E3FGHIRWXY/LB1 |
Departure
| Time | 2026-05-07 12:50 |
|---|---|
| Airport | Kochi Ryoma Airport (RJOK) |
Arrival
| Time | 2026-05-07 13:54 |
|---|---|
| Airport | Tokyo Haneda International Airport (RJTT) |
| Time | Latitude | Longitude | Altitude | Speed | Heading |
|---|---|---|---|---|---|
| 2026-05-07 12:20 | 33.54716 | 133.67347 | 28 ft | 0 kts | 40° |
| 2026-05-07 12:41 | 33.54704 | 133.67334 | 28 ft | 4 kts | 40° |
| 2026-05-07 12:41 | 33.54683 | 133.67314 | 27 ft | 4 kts | 38° |
| 2026-05-07 12:41 | 33.54661 | 133.67294 | 27 ft | 4 kts | 36° |
| 2026-05-07 12:41 | 33.54639 | 133.67276 | 32 ft | 4 kts | 31° |
| 2026-05-07 12:42 | 33.54615 | 133.67261 | 29 ft | 4 kts | 15° |
| 2026-05-07 12:42 | 33.54593 | 133.67260 | 29 ft | 2 kts | 313° |
| 2026-05-07 12:42 | 33.54589 | 133.67265 | 27 ft | 0 kts | 311° |
| 2026-05-07 12:46 | 33.54599 | 133.67252 | 27 ft | 6 kts | 311° |
| 2026-05-07 12:46 | 33.54640 | 133.67195 | 26 ft | 12 kts | 310° |
| 2026-05-07 12:47 | 33.54783 | 133.66998 | 26 ft | 19 kts | 311° |
| 2026-05-07 12:47 | 33.54868 | 133.66877 | 26 ft | 20 kts | 309° |
| 2026-05-07 12:47 | 33.54960 | 133.66743 | 27 ft | 21 kts | 311° |
| 2026-05-07 12:47 | 33.55057 | 133.66610 | 28 ft | 22 kts | 311° |
| 2026-05-07 12:48 | 33.55159 | 133.66468 | 29 ft | 23 kts | 310° |
| 2026-05-07 12:48 | 33.55267 | 133.66318 | 28 ft | 25 kts | 311° |
| 2026-05-07 12:48 | 33.55381 | 133.66160 | 27 ft | 20 kts | 310° |
| 2026-05-07 12:48 | 33.55427 | 133.66022 | 26 ft | 11 kts | 241° |
| 2026-05-07 12:49 | 33.55367 | 133.65949 | 23 ft | 14 kts | 219° |
| 2026-05-07 12:49 | 33.55290 | 133.65966 | 25 ft | 8 kts | 145° |
| 2026-05-07 12:49 | 33.55287 | 133.65981 | 25 ft | 3 kts | 105° |
| 2026-05-07 12:49 | 33.55273 | 133.66007 | 28 ft | 5 kts | 128° |
| 2026-05-07 12:50 | 33.55243 | 133.66051 | 26 ft | 30 kts | 130° |
| 2026-05-07 12:50 | 33.54936 | 133.66476 | 27 ft | 101 kts | 129° |
| 2026-05-07 12:50 | 33.54347 | 133.67295 | 45 ft | 153 kts | 131° |
| 2026-05-07 12:50 | 33.53675 | 133.68182 | 775 ft | 137 kts | 140° |
| 2026-05-07 12:51 | 33.52792 | 133.68689 | 1225 ft | 148 kts | 166° |
| 2026-05-07 12:51 | 33.51750 | 133.68926 | 1766 ft | 154 kts | 171° |
| 2026-05-07 12:51 | 33.50699 | 133.69155 | 2399 ft | 153 kts | 169° |
| 2026-05-07 12:51 | 33.49656 | 133.69449 | 3029 ft | 154 kts | 167° |
| 2026-05-07 12:52 | 33.48590 | 133.69812 | 3585 ft | 167 kts | 166° |
| 2026-05-07 12:52 | 33.47415 | 133.70251 | 4071 ft | 186 kts | 165° |
| 2026-05-07 12:52 | 33.46108 | 133.70760 | 4504 ft | 210 kts | 164° |
| 2026-05-07 12:52 | 33.44649 | 133.71335 | 5005 ft | 231 kts | 164° |
| 2026-05-07 12:53 | 33.43066 | 133.72036 | 5519 ft | 255 kts | 154° |
| 2026-05-07 12:53 | 33.41693 | 133.73482 | 6064 ft | 279 kts | 126° |
| 2026-05-07 12:53 | 33.40979 | 133.75677 | 6889 ft | 290 kts | 101° |
| 2026-05-07 12:53 | 33.40698 | 133.78098 | 7744 ft | 297 kts | 98° |
| 2026-05-07 12:54 | 33.40465 | 133.80578 | 8608 ft | 303 kts | 98° |
| 2026-05-07 12:54 | 33.40222 | 133.83109 | 9460 ft | 308 kts | 99° |
| 2026-05-07 12:54 | 33.39958 | 133.85682 | 10259 ft | 314 kts | 99° |
| 2026-05-07 12:54 | 33.39667 | 133.88359 | 10619 ft | 337 kts | 100° |
| 2026-05-07 12:55 | 33.39344 | 133.91239 | 10878 ft | 360 kts | 100° |
| 2026-05-07 12:55 | 33.39004 | 133.94245 | 11483 ft | 368 kts | 100° |
| 2026-05-07 12:55 | 33.38661 | 133.97293 | 12266 ft | 372 kts | 100° |
| 2026-05-07 12:55 | 33.38312 | 134.00383 | 12985 ft | 377 kts | 100° |
| 2026-05-07 12:56 | 33.37957 | 134.03506 | 13710 ft | 381 kts | 99° |
| 2026-05-07 12:56 | 33.37597 | 134.06671 | 14351 ft | 386 kts | 99° |
| 2026-05-07 12:56 | 33.37232 | 134.09869 | 14989 ft | 390 kts | 100° |
| 2026-05-07 12:56 | 33.36863 | 134.13101 | 15608 ft | 395 kts | 99° |
| 2026-05-07 12:57 | 33.36488 | 134.16378 | 16223 ft | 399 kts | 100° |
| 2026-05-07 12:57 | 33.36109 | 134.19680 | 16865 ft | 402 kts | 100° |
| 2026-05-07 12:57 | 33.35725 | 134.23018 | 17389 ft | 408 kts | 100° |
| 2026-05-07 12:57 | 33.35335 | 134.26392 | 17999 ft | 412 kts | 100° |
| 2026-05-07 12:58 | 33.34946 | 134.29764 | 18532 ft | 416 kts | 100° |
| 2026-05-07 12:58 | 33.34551 | 134.33204 | 19056 ft | 419 kts | 99° |
| 2026-05-07 12:58 | 33.34337 | 134.36716 | 19573 ft | 424 kts | 95° |
| 2026-05-07 12:58 | 33.34171 | 134.40258 | 20092 ft | 428 kts | 95° |
| 2026-05-07 12:59 | 33.34002 | 134.43822 | 20600 ft | 431 kts | 95° |
| 2026-05-07 12:59 | 33.33828 | 134.47417 | 21118 ft | 435 kts | 95° |
| 2026-05-07 12:59 | 33.33650 | 134.51042 | 21631 ft | 438 kts | 95° |
| 2026-05-07 12:59 | 33.33714 | 134.54702 | 22114 ft | 445 kts | 82° |
| 2026-05-07 13:00 | 33.34414 | 134.58324 | 22601 ft | 450 kts | 75° |
| 2026-05-07 13:00 | 33.35248 | 134.61951 | 23097 ft | 453 kts | 75° |
| 2026-05-07 13:00 | 33.36100 | 134.65602 | 23580 ft | 457 kts | 75° |
| 2026-05-07 13:00 | 33.36953 | 134.69284 | 23998 ft | 460 kts | 75° |
| 2026-05-07 13:01 | 33.37802 | 134.72984 | 24452 ft | 463 kts | 75° |
| 2026-05-07 13:01 | 33.38649 | 134.76707 | 24888 ft | 465 kts | 75° |
| 2026-05-07 13:01 | 33.39499 | 134.80459 | 25287 ft | 469 kts | 75° |
| 2026-05-07 13:01 | 33.40352 | 134.84240 | 25699 ft | 471 kts | 75° |
| 2026-05-07 13:02 | 33.41206 | 134.88033 | 26123 ft | 474 kts | 75° |
| 2026-05-07 13:02 | 33.42066 | 134.91865 | 26521 ft | 477 kts | 75° |
| 2026-05-07 13:02 | 33.42927 | 134.95705 | 26928 ft | 479 kts | 75° |
| 2026-05-07 13:02 | 33.43781 | 134.99521 | 27324 ft | 482 kts | 75° |
| 2026-05-07 13:03 | 33.44649 | 135.03405 | 27717 ft | 484 kts | 75° |
| 2026-05-07 13:03 | 33.45520 | 135.07309 | 28115 ft | 487 kts | 75° |
| 2026-05-07 13:03 | 33.46395 | 135.11236 | 28486 ft | 489 kts | 75° |
| 2026-05-07 13:03 | 33.47273 | 135.15185 | 28860 ft | 492 kts | 75° |
| 2026-05-07 13:04 | 33.48154 | 135.19149 | 29213 ft | 494 kts | 75° |
| 2026-05-07 13:04 | 33.49038 | 135.23137 | 29538 ft | 497 kts | 75° |
| 2026-05-07 13:04 | 33.49926 | 135.27145 | 29887 ft | 499 kts | 75° |
| 2026-05-07 13:04 | 33.50816 | 135.31172 | 30196 ft | 501 kts | 75° |
| 2026-05-07 13:05 | 33.51711 | 135.35228 | 30492 ft | 503 kts | 75° |
| 2026-05-07 13:05 | 33.52607 | 135.39292 | 30794 ft | 505 kts | 75° |
| 2026-05-07 13:05 | 33.53505 | 135.43372 | 31098 ft | 507 kts | 75° |
| 2026-05-07 13:05 | 33.54401 | 135.47454 | 31465 ft | 507 kts | 75° |
| 2026-05-07 13:06 | 33.55296 | 135.51536 | 31877 ft | 505 kts | 76° |
| 2026-05-07 13:06 | 33.56186 | 135.55605 | 32271 ft | 504 kts | 76° |
| 2026-05-07 13:06 | 33.57063 | 135.59619 | 32666 ft | 503 kts | 76° |
| 2026-05-07 13:06 | 33.57948 | 135.63674 | 33056 ft | 502 kts | 76° |
| 2026-05-07 13:07 | 33.58830 | 135.67721 | 33415 ft | 501 kts | 76° |
| 2026-05-07 13:07 | 33.59708 | 135.71755 | 33769 ft | 500 kts | 76° |
| 2026-05-07 13:07 | 33.60582 | 135.75784 | 34112 ft | 499 kts | 76° |
| 2026-05-07 13:07 | 33.61455 | 135.79811 | 34406 ft | 498 kts | 76° |
| 2026-05-07 13:08 | 33.62325 | 135.83833 | 34683 ft | 497 kts | 76° |
| 2026-05-07 13:08 | 33.63192 | 135.87852 | 34909 ft | 497 kts | 76° |
| 2026-05-07 13:08 | 33.64924 | 135.95893 | 34956 ft | 496 kts | 76° |
| 2026-05-07 13:09 | 33.66642 | 136.03896 | 34955 ft | 496 kts | 76° |
| 2026-05-07 13:09 | 33.68360 | 136.11929 | 34956 ft | 496 kts | 76° |
| 2026-05-07 13:10 | 33.70072 | 136.19959 | 34954 ft | 496 kts | 77° |
| 2026-05-07 13:10 | 33.71778 | 136.27993 | 34953 ft | 496 kts | 77° |
| 2026-05-07 13:11 | 33.73467 | 136.35972 | 34954 ft | 496 kts | 77° |
| 2026-05-07 13:11 | 33.75163 | 136.44010 | 34956 ft | 496 kts | 77° |
| 2026-05-07 13:12 | 33.76855 | 136.52055 | 34958 ft | 496 kts | 77° |
| 2026-05-07 13:12 | 33.78536 | 136.60081 | 34953 ft | 496 kts | 77° |
| 2026-05-07 13:13 | 33.80214 | 136.68119 | 34958 ft | 495 kts | 77° |
| 2026-05-07 13:13 | 33.81886 | 136.76155 | 34957 ft | 495 kts | 77° |
| 2026-05-07 13:14 | 33.83551 | 136.84186 | 34960 ft | 495 kts | 77° |
| 2026-05-07 13:14 | 33.84929 | 136.90856 | 34956 ft | 494 kts | 77° |
| 2026-05-07 13:15 | 33.86581 | 136.98876 | 34958 ft | 494 kts | 77° |
| 2026-05-07 13:15 | 33.88226 | 137.06887 | 34956 ft | 493 kts | 77° |
| 2026-05-07 13:16 | 33.89864 | 137.14896 | 34955 ft | 493 kts | 77° |
| 2026-05-07 13:16 | 33.91496 | 137.22904 | 34948 ft | 492 kts | 77° |
| 2026-05-07 13:17 | 33.93121 | 137.30906 | 34947 ft | 492 kts | 77° |
| 2026-05-07 13:17 | 33.94740 | 137.38910 | 34948 ft | 491 kts | 77° |
| 2026-05-07 13:18 | 33.96353 | 137.46909 | 34949 ft | 491 kts | 77° |
| 2026-05-07 13:18 | 33.97959 | 137.54902 | 34950 ft | 491 kts | 77° |
| 2026-05-07 13:19 | 33.99559 | 137.62897 | 34956 ft | 490 kts | 77° |
| 2026-05-07 13:19 | 34.01152 | 137.70886 | 34965 ft | 490 kts | 77° |
| 2026-05-07 13:20 | 34.02738 | 137.78869 | 34959 ft | 490 kts | 77° |
| 2026-05-07 13:20 | 34.04319 | 137.86852 | 34958 ft | 489 kts | 77° |
| 2026-05-07 13:21 | 34.05893 | 137.94829 | 34959 ft | 489 kts | 77° |
| 2026-05-07 13:21 | 34.07461 | 138.02804 | 34955 ft | 488 kts | 77° |
| 2026-05-07 13:22 | 34.09020 | 138.10766 | 34957 ft | 488 kts | 77° |
| 2026-05-07 13:22 | 34.10574 | 138.18726 | 34918 ft | 486 kts | 77° |
| 2026-05-07 13:23 | 34.11346 | 138.22696 | 34693 ft | 486 kts | 77° |
| 2026-05-07 13:23 | 34.12120 | 138.26680 | 34464 ft | 488 kts | 77° |
| 2026-05-07 13:23 | 34.12898 | 138.30690 | 34041 ft | 491 kts | 77° |
| 2026-05-07 13:23 | 34.13677 | 138.34718 | 33291 ft | 494 kts | 78° |
| 2026-05-07 13:24 | 34.14460 | 138.38768 | 32385 ft | 498 kts | 78° |
| 2026-05-07 13:24 | 34.15252 | 138.42870 | 31447 ft | 502 kts | 78° |
| 2026-05-07 13:24 | 34.16040 | 138.46962 | 30875 ft | 498 kts | 78° |
| 2026-05-07 13:24 | 34.16819 | 138.51015 | 30239 ft | 494 kts | 78° |
| 2026-05-07 13:25 | 34.17590 | 138.55036 | 29635 ft | 490 kts | 78° |
| 2026-05-07 13:25 | 34.18352 | 138.59020 | 29049 ft | 484 kts | 78° |
| 2026-05-07 13:25 | 34.19103 | 138.62954 | 28472 ft | 478 kts | 78° |
| 2026-05-07 13:25 | 34.19843 | 138.66842 | 27894 ft | 473 kts | 78° |
| 2026-05-07 13:26 | 34.20576 | 138.70693 | 27329 ft | 468 kts | 78° |
| 2026-05-07 13:26 | 34.21301 | 138.74510 | 26760 ft | 464 kts | 78° |
| 2026-05-07 13:26 | 34.22017 | 138.78288 | 26189 ft | 459 kts | 78° |
| 2026-05-07 13:26 | 34.22725 | 138.82033 | 25627 ft | 456 kts | 78° |
| 2026-05-07 13:27 | 34.23429 | 138.85758 | 25069 ft | 452 kts | 78° |
| 2026-05-07 13:27 | 34.24126 | 138.89455 | 24513 ft | 449 kts | 78° |
| 2026-05-07 13:27 | 34.24833 | 138.93118 | 23885 ft | 448 kts | 75° |
| 2026-05-07 13:27 | 34.26012 | 138.96591 | 23295 ft | 445 kts | 60° |
| 2026-05-07 13:28 | 34.27541 | 138.99802 | 22892 ft | 436 kts | 60° |
| 2026-05-07 13:28 | 34.29038 | 139.02950 | 22616 ft | 429 kts | 60° |
| 2026-05-07 13:28 | 34.30508 | 139.06051 | 22370 ft | 432 kts | 60° |
| 2026-05-07 13:28 | 34.32002 | 139.09209 | 22098 ft | 432 kts | 60° |
| 2026-05-07 13:29 | 34.33489 | 139.12357 | 21767 ft | 430 kts | 60° |
| 2026-05-07 13:29 | 34.34968 | 139.15493 | 21398 ft | 427 kts | 60° |
| 2026-05-07 13:29 | 34.36436 | 139.18607 | 20998 ft | 425 kts | 60° |
| 2026-05-07 13:29 | 34.37896 | 139.21707 | 20513 ft | 422 kts | 60° |
| 2026-05-07 13:30 | 34.39343 | 139.24782 | 20031 ft | 418 kts | 60° |
| 2026-05-07 13:30 | 34.40777 | 139.27831 | 19500 ft | 415 kts | 60° |
| 2026-05-07 13:30 | 34.42202 | 139.30864 | 18968 ft | 412 kts | 60° |
| 2026-05-07 13:30 | 34.43615 | 139.33876 | 18454 ft | 410 kts | 60° |
| 2026-05-07 13:31 | 34.45019 | 139.36869 | 17885 ft | 407 kts | 60° |
| 2026-05-07 13:31 | 34.46416 | 139.39850 | 17282 ft | 405 kts | 60° |
| 2026-05-07 13:31 | 34.47787 | 139.42779 | 16705 ft | 403 kts | 60° |
| 2026-05-07 13:31 | 34.49184 | 139.45765 | 16134 ft | 401 kts | 60° |
| 2026-05-07 13:32 | 34.50539 | 139.48663 | 15589 ft | 399 kts | 60° |
| 2026-05-07 13:32 | 34.51907 | 139.51591 | 15037 ft | 398 kts | 60° |
| 2026-05-07 13:32 | 34.53571 | 139.54246 | 14486 ft | 395 kts | 41° |
| 2026-05-07 13:32 | 34.55756 | 139.56245 | 13954 ft | 392 kts | 32° |
| 2026-05-07 13:33 | 34.58000 | 139.58116 | 13408 ft | 390 kts | 32° |
| 2026-05-07 13:33 | 34.60229 | 139.59979 | 12937 ft | 386 kts | 32° |
| 2026-05-07 13:33 | 34.62428 | 139.61820 | 12556 ft | 384 kts | 32° |
| 2026-05-07 13:33 | 34.64632 | 139.63668 | 12181 ft | 384 kts | 32° |
| 2026-05-07 13:34 | 34.66814 | 139.65500 | 11811 ft | 379 kts | 32° |
| 2026-05-07 13:34 | 34.71132 | 139.69138 | 11076 ft | 375 kts | 32° |
| 2026-05-07 13:34 | 34.73276 | 139.70945 | 10715 ft | 374 kts | 32° |
| 2026-05-07 13:35 | 34.75406 | 139.72743 | 10388 ft | 371 kts | 32° |
| 2026-05-07 13:35 | 34.77504 | 139.74518 | 10162 ft | 362 kts | 32° |
| 2026-05-07 13:35 | 34.79524 | 139.76233 | 10113 ft | 346 kts | 32° |
| 2026-05-07 13:35 | 34.81444 | 139.77872 | 10106 ft | 329 kts | 32° |
| 2026-05-07 13:36 | 34.83292 | 139.79457 | 9919 ft | 325 kts | 32° |
| 2026-05-07 13:36 | 34.85120 | 139.81025 | 9550 ft | 325 kts | 32° |
| 2026-05-07 13:36 | 34.86965 | 139.82606 | 9166 ft | 323 kts | 32° |
| 2026-05-07 13:36 | 34.88800 | 139.84175 | 8793 ft | 321 kts | 32° |
| 2026-05-07 13:37 | 34.90618 | 139.85728 | 8410 ft | 318 kts | 32° |
| 2026-05-07 13:37 | 34.92424 | 139.87272 | 8115 ft | 314 kts | 32° |
| 2026-05-07 13:37 | 34.94194 | 139.88786 | 8034 ft | 312 kts | 32° |
| 2026-05-07 13:37 | 34.95981 | 139.90311 | 8025 ft | 314 kts | 32° |
| 2026-05-07 13:38 | 34.97768 | 139.91836 | 8025 ft | 314 kts | 32° |
| 2026-05-07 13:38 | 34.99554 | 139.93365 | 8024 ft | 315 kts | 32° |
| 2026-05-07 13:38 | 35.01348 | 139.94901 | 8020 ft | 315 kts | 32° |
| 2026-05-07 13:38 | 35.03143 | 139.96435 | 8019 ft | 315 kts | 32° |
| 2026-05-07 13:39 | 35.04937 | 139.97969 | 8019 ft | 315 kts | 32° |
| 2026-05-07 13:39 | 35.06728 | 139.99503 | 8027 ft | 315 kts | 32° |
| 2026-05-07 13:39 | 35.08529 | 140.01048 | 8027 ft | 316 kts | 32° |
| 2026-05-07 13:39 | 35.10323 | 140.02585 | 8023 ft | 314 kts | 32° |
| 2026-05-07 13:40 | 35.12114 | 140.04120 | 8023 ft | 315 kts | 32° |
| 2026-05-07 13:40 | 35.13887 | 140.05638 | 8017 ft | 315 kts | 32° |
| 2026-05-07 13:40 | 35.15683 | 140.07172 | 8020 ft | 316 kts | 32° |
| 2026-05-07 13:40 | 35.17505 | 140.08735 | 8014 ft | 316 kts | 32° |
| 2026-05-07 13:41 | 35.19274 | 140.10254 | 8017 ft | 314 kts | 32° |
| 2026-05-07 13:41 | 35.21079 | 140.11739 | 8008 ft | 311 kts | 23° |
| 2026-05-07 13:41 | 35.23108 | 140.12531 | 8013 ft | 306 kts | 7° |
| 2026-05-07 13:41 | 35.25190 | 140.13073 | 8013 ft | 306 kts | 7° |
| 2026-05-07 13:42 | 35.27275 | 140.13608 | 8013 ft | 307 kts | 7° |
| 2026-05-07 13:42 | 35.29366 | 140.14147 | 8007 ft | 307 kts | 7° |
| 2026-05-07 13:42 | 35.31450 | 140.14690 | 8003 ft | 305 kts | 7° |
| 2026-05-07 13:42 | 35.33522 | 140.15232 | 8006 ft | 304 kts | 7° |
| 2026-05-07 13:43 | 35.35589 | 140.15774 | 8002 ft | 304 kts | 7° |
| 2026-05-07 13:43 | 35.37657 | 140.16317 | 8008 ft | 304 kts | 8° |
| 2026-05-07 13:43 | 35.39734 | 140.16864 | 8002 ft | 304 kts | 8° |
| 2026-05-07 13:43 | 35.41807 | 140.17410 | 7861 ft | 304 kts | 7° |
| 2026-05-07 13:44 | 35.43865 | 140.17953 | 7658 ft | 300 kts | 8° |
| 2026-05-07 13:44 | 35.45905 | 140.18492 | 7301 ft | 300 kts | 8° |
| 2026-05-07 13:44 | 35.47930 | 140.19026 | 7064 ft | 293 kts | 8° |
| 2026-05-07 13:44 | 35.49880 | 140.19545 | 7000 ft | 279 kts | 7° |
| 2026-05-07 13:45 | 35.51753 | 140.20039 | 6997 ft | 276 kts | 6° |
| 2026-05-07 13:45 | 35.53648 | 140.20158 | 6993 ft | 271 kts | 348° |
| 2026-05-07 13:45 | 35.55456 | 140.19663 | 6913 ft | 263 kts | 338° |
| 2026-05-07 13:45 | 35.57208 | 140.19027 | 6650 ft | 262 kts | 335° |
| 2026-05-07 13:46 | 35.58724 | 140.17907 | 6311 ft | 249 kts | 309° |
| 2026-05-07 13:46 | 35.59688 | 140.16197 | 5957 ft | 242 kts | 294° |
| 2026-05-07 13:46 | 35.60327 | 140.14314 | 5630 ft | 235 kts | 279° |
| 2026-05-07 13:46 | 35.60538 | 140.12392 | 5529 ft | 221 kts | 269° |
| 2026-05-07 13:47 | 35.60549 | 140.10541 | 5332 ft | 214 kts | 265° |
| 2026-05-07 13:47 | 35.60526 | 140.08713 | 5061 ft | 213 kts | 266° |
| 2026-05-07 13:47 | 35.60515 | 140.06896 | 4772 ft | 212 kts | 266° |
| 2026-05-07 13:47 | 35.60504 | 140.05096 | 4469 ft | 209 kts | 266° |
| 2026-05-07 13:48 | 35.60493 | 140.03317 | 4171 ft | 206 kts | 266° |
| 2026-05-07 13:48 | 35.60484 | 140.01610 | 4021 ft | 188 kts | 266° |
| 2026-05-07 13:48 | 35.60475 | 140.00066 | 3766 ft | 176 kts | 266° |
| 2026-05-07 13:48 | 35.60466 | 139.98610 | 3432 ft | 168 kts | 266° |
| 2026-05-07 13:49 | 35.60458 | 139.97211 | 3095 ft | 159 kts | 267° |
| 2026-05-07 13:49 | 35.60451 | 139.95885 | 2780 ft | 150 kts | 267° |
| 2026-05-07 13:49 | 35.60444 | 139.94619 | 2494 ft | 149 kts | 267° |
| 2026-05-07 13:49 | 35.60438 | 139.93402 | 2234 ft | 146 kts | 267° |
| 2026-05-07 13:50 | 35.60432 | 139.92201 | 2006 ft | 133 kts | 266° |
| 2026-05-07 13:50 | 35.60426 | 139.91111 | 1751 ft | 124 kts | 265° |
| 2026-05-07 13:50 | 35.60421 | 139.90072 | 1533 ft | 122 kts | 264° |
| 2026-05-07 13:50 | 35.60416 | 139.89021 | 1448 ft | 122 kts | 265° |
| 2026-05-07 13:51 | 35.60410 | 139.87967 | 1365 ft | 125 kts | 265° |
| 2026-05-07 13:51 | 35.60405 | 139.86892 | 1289 ft | 126 kts | 265° |
| 2026-05-07 13:51 | 35.60393 | 139.85816 | 1219 ft | 126 kts | 264° |
| 2026-05-07 13:51 | 35.60375 | 139.84738 | 1163 ft | 125 kts | 263° |
| 2026-05-07 13:52 | 35.60349 | 139.83679 | 1088 ft | 124 kts | 263° |
| 2026-05-07 13:52 | 35.60269 | 139.82639 | 999 ft | 122 kts | 249° |
| 2026-05-07 13:52 | 35.59963 | 139.81637 | 961 ft | 126 kts | 247° |
| 2026-05-07 13:52 | 35.59605 | 139.80669 | 905 ft | 125 kts | 234° |
| 2026-05-07 13:53 | 35.59039 | 139.79863 | 757 ft | 125 kts | 223° |
| 2026-05-07 13:53 | 35.58385 | 139.79155 | 554 ft | 124 kts | 218° |
| 2026-05-07 13:53 | 35.57699 | 139.78505 | 360 ft | 124 kts | 213° |
| 2026-05-07 13:53 | 35.56989 | 139.77908 | 149 ft | 123 kts | 213° |
| 2026-05-07 13:54 | 35.56294 | 139.77319 | 37 ft | 116 kts | 213° |
| 2026-05-07 13:54 | 35.55884 | 139.76980 | 28 ft | 25 kts | 206° |
| 2026-05-07 13:54 | 35.55716 | 139.76903 | 25 ft | 27 kts | 192° |
| 2026-05-07 13:54 | 35.55619 | 139.76917 | 26 ft | 8 kts | 128° |
| 2026-05-07 13:55 | 35.55603 | 139.76992 | 23 ft | 11 kts | 84° |
| 2026-05-07 13:55 | 35.55658 | 139.77045 | 24 ft | 11 kts | 36° |
| 2026-05-07 13:55 | 35.55723 | 139.77106 | 28 ft | 12 kts | 37° |
| 2026-05-07 13:55 | 35.55811 | 139.77178 | 23 ft | 18 kts | 33° |
| 2026-05-07 13:56 | 35.55917 | 139.77274 | 27 ft | 20 kts | 49° |
| 2026-05-07 13:56 | 35.55992 | 139.77427 | 24 ft | 23 kts | 59° |
| 2026-05-07 13:56 | 35.56069 | 139.77591 | 23 ft | 22 kts | 60° |
| 2026-05-07 13:56 | 35.56134 | 139.77726 | 27 ft | 19 kts | 60° |
| 2026-05-07 13:57 | 35.56204 | 139.77876 | 25 ft | 21 kts | 60° |
| 2026-05-07 13:57 | 35.56278 | 139.78038 | 25 ft | 18 kts | 59° |
| 2026-05-07 13:57 | 35.56337 | 139.78160 | 27 ft | 15 kts | 62° |
| 2026-05-07 13:57 | 35.56298 | 139.78241 | 27 ft | 12 kts | 152° |
| 2026-05-07 13:58 | 35.56218 | 139.78294 | 24 ft | 15 kts | 150° |
| 2026-05-07 13:58 | 35.56124 | 139.78362 | 26 ft | 17 kts | 149° |
| 2026-05-07 13:58 | 35.56019 | 139.78439 | 24 ft | 19 kts | 151° |
| 2026-05-07 13:58 | 35.55914 | 139.78511 | 23 ft | 14 kts | 150° |
| 2026-05-07 13:59 | 35.55861 | 139.78529 | 22 ft | 5 kts | 219° |
| 2026-05-07 13:59 | 35.55829 | 139.78481 | 21 ft | 8 kts | 239° |
| 2026-05-07 13:59 | 35.55812 | 139.78443 | 22 ft | 0 kts | 241° |